sensor_id;sensor_type;location;lat;lon;timestamp;P1;durP1;ratioP1;P2;durP2;ratioP2
67187;SDS011;54117;53.532;49.426;2022-07-03T00:02:21;13.40;;;9.48;;
67187;SDS011;54117;53.532;49.426;2022-07-03T00:04:47;25.10;;;9.98;;
67187;SDS011;54117;53.532;49.426;2022-07-03T00:07:14;17.17;;;10.25;;
67187;SDS011;54117;53.532;49.426;2022-07-03T00:09:40;13.75;;;8.93;;
67187;SDS011;54117;53.532;49.426;2022-07-03T00:12:07;12.40;;;9.20;;
67187;SDS011;54117;53.532;49.426;2022-07-03T00:14:34;15.18;;;9.35;;
67187;SDS011;54117;53.532;49.426;2022-07-03T00:17:01;15.60;;;8.75;;
67187;SDS011;54117;53.532;49.426;2022-07-03T00:19:27;16.00;;;7.93;;
67187;SDS011;54117;53.532;49.426;2022-07-03T00:21:58;12.88;;;8.80;;
67187;SDS011;54117;53.532;49.426;2022-07-03T00:27:08;18.90;;;7.47;;
67187;SDS011;54117;53.532;49.426;2022-07-03T00:29:37;13.57;;;8.57;;
67187;SDS011;54117;53.532;49.426;2022-07-03T00:32:08;13.48;;;9.00;;
67187;SDS011;54117;53.532;49.426;2022-07-03T00:34:37;12.75;;;7.15;;
67187;SDS011;54117;53.532;49.426;2022-07-03T00:37:08;10.02;;;8.15;;
67187;SDS011;54117;53.532;49.426;2022-07-03T00:39:36;11.05;;;7.55;;
67187;SDS011;54117;53.532;49.426;2022-07-03T00:42:05;10.32;;;7.30;;
67187;SDS011;54117;53.532;49.426;2022-07-03T00:44:33;9.40;;;7.03;;
67187;SDS011;54117;53.532;49.426;2022-07-03T00:47:08;13.50;;;7.68;;
67187;SDS011;54117;53.532;49.426;2022-07-03T00:49:34;8.25;;;6.97;;
67187;SDS011;54117;53.532;49.426;2022-07-03T00:52:04;13.05;;;7.40;;
67187;SDS011;54117;53.532;49.426;2022-07-03T00:54:33;9.65;;;7.05;;
67187;SDS011;54117;53.532;49.426;2022-07-03T00:57:00;15.23;;;7.20;;
67187;SDS011;54117;53.532;49.426;2022-07-03T00:59:29;12.68;;;7.05;;
67187;SDS011;54117;53.532;49.426;2022-07-03T01:02:05;9.13;;;6.82;;
67187;SDS011;54117;53.532;49.426;2022-07-03T01:07:51;7.15;;;5.95;;
67187;SDS011;54117;53.532;49.426;2022-07-03T01:18:45;8.85;;;6.00;;
67187;SDS011;54117;53.532;49.426;2022-07-03T01:26:38;7.85;;;5.93;;
67187;SDS011;54117;53.532;49.426;2022-07-03T01:29:12;6.93;;;5.55;;
67187;SDS011;54117;53.532;49.426;2022-07-03T01:31:55;5.63;;;5.03;;
67187;SDS011;54117;53.532;49.426;2022-07-03T01:34:22;9.88;;;5.53;;
67187;SDS011;54117;53.532;49.426;2022-07-03T01:36:51;7.40;;;5.63;;
67187;SDS011;54117;53.532;49.426;2022-07-03T01:39:24;7.50;;;6.32;;
67187;SDS011;54117;53.532;49.426;2022-07-03T01:41:53;8.57;;;6.03;;
67187;SDS011;54117;53.532;49.426;2022-07-03T01:44:21;7.93;;;5.90;;
67187;SDS011;54117;53.532;49.426;2022-07-03T01:46:52;9.52;;;6.63;;
67187;SDS011;54117;53.532;49.426;2022-07-03T01:49:21;11.13;;;6.00;;
67187;SDS011;54117;53.532;49.426;2022-07-03T01:51:53;9.15;;;6.05;;
67187;SDS011;54117;53.532;49.426;2022-07-03T01:54:24;12.32;;;6.00;;
67187;SDS011;54117;53.532;49.426;2022-07-03T01:56:52;6.28;;;5.25;;
67187;SDS011;54117;53.532;49.426;2022-07-03T01:59:20;5.95;;;5.35;;
67187;SDS011;54117;53.532;49.426;2022-07-03T02:04:44;12.18;;;5.68;;
67187;SDS011;54117;53.532;49.426;2022-07-03T02:07:37;6.80;;;4.95;;
67187;SDS011;54117;53.532;49.426;2022-07-03T02:10:27;8.75;;;5.82;;
67187;SDS011;54117;53.532;49.426;2022-07-03T02:13:02;5.60;;;4.80;;
67187;SDS011;54117;53.532;49.426;2022-07-03T02:15:36;5.28;;;4.70;;
67187;SDS011;54117;53.532;49.426;2022-07-03T02:20:45;12.95;;;6.05;;
67187;SDS011;54117;53.532;49.426;2022-07-03T02:23:15;7.85;;;5.75;;
67187;SDS011;54117;53.532;49.426;2022-07-03T02:25:45;10.68;;;5.82;;
67187;SDS011;54117;53.532;49.426;2022-07-03T02:31:01;12.50;;;7.00;;
67187;SDS011;54117;53.532;49.426;2022-07-03T02:33:30;21.00;;;8.93;;
67187;SDS011;54117;53.532;49.426;2022-07-03T02:35:58;22.48;;;8.73;;
67187;SDS011;54117;53.532;49.426;2022-07-03T02:38:26;17.05;;;9.68;;
67187;SDS011;54117;53.532;49.426;2022-07-03T02:41:07;17.40;;;7.95;;
67187;SDS011;54117;53.532;49.426;2022-07-03T02:51:52;12.57;;;8.60;;
67187;SDS011;54117;53.532;49.426;2022-07-03T02:54:27;14.48;;;8.02;;
67187;SDS011;54117;53.532;49.426;2022-07-03T02:57:06;13.95;;;6.47;;
67187;SDS011;54117;53.532;49.426;2022-07-03T03:05:27;10.95;;;4.47;;
67187;SDS011;54117;53.532;49.426;2022-07-03T03:11:05;8.68;;;4.60;;
67187;SDS011;54117;53.532;49.426;2022-07-03T03:13:34;5.50;;;3.78;;
67187;SDS011;54117;53.532;49.426;2022-07-03T03:16:05;4.78;;;3.50;;
67187;SDS011;54117;53.532;49.426;2022-07-03T03:18:39;4.90;;;3.75;;
67187;SDS011;54117;53.532;49.426;2022-07-03T03:21:09;4.00;;;3.45;;
67187;SDS011;54117;53.532;49.426;2022-07-03T03:26:20;10.00;;;4.07;;
67187;SDS011;54117;53.532;49.426;2022-07-03T03:28:49;12.45;;;3.97;;
67187;SDS011;54117;53.532;49.426;2022-07-03T03:31:16;5.95;;;3.75;;
67187;SDS011;54117;53.532;49.426;2022-07-03T03:33:46;5.97;;;3.40;;
67187;SDS011;54117;53.532;49.426;2022-07-03T03:36:16;10.10;;;3.90;;
67187;SDS011;54117;53.532;49.426;2022-07-03T03:38:43;12.05;;;4.70;;
67187;SDS011;54117;53.532;49.426;2022-07-03T03:41:11;7.95;;;4.35;;
67187;SDS011;54117;53.532;49.426;2022-07-03T03:43:37;3.85;;;3.45;;
67187;SDS011;54117;53.532;49.426;2022-07-03T03:46:04;3.78;;;3.47;;
67187;SDS011;54117;53.532;49.426;2022-07-03T03:48:31;5.93;;;3.72;;
67187;SDS011;54117;53.532;49.426;2022-07-03T03:50:59;7.30;;;3.80;;
67187;SDS011;54117;53.532;49.426;2022-07-03T03:53:27;3.80;;;3.45;;
67187;SDS011;54117;53.532;49.426;2022-07-03T03:55:59;3.65;;;3.35;;
67187;SDS011;54117;53.532;49.426;2022-07-03T03:58:37;3.73;;;3.43;;
67187;SDS011;54117;53.532;49.426;2022-07-03T04:01:05;7.25;;;3.72;;
67187;SDS011;54117;53.532;49.426;2022-07-03T04:03:33;4.07;;;3.67;;
67187;SDS011;54117;53.532;49.426;2022-07-03T04:06:00;4.82;;;3.92;;
67187;SDS011;54117;53.532;49.426;2022-07-03T04:08:27;4.18;;;3.75;;
67187;SDS011;54117;53.532;49.426;2022-07-03T04:10:55;7.95;;;3.22;;
67187;SDS011;54117;53.532;49.426;2022-07-03T04:13:22;4.45;;;3.53;;
67187;SDS011;54117;53.532;49.426;2022-07-03T04:15:49;5.93;;;3.65;;
67187;SDS011;54117;53.532;49.426;2022-07-03T04:18:17;6.65;;;3.95;;
67187;SDS011;54117;53.532;49.426;2022-07-03T04:20:44;6.05;;;4.00;;
67187;SDS011;54117;53.532;49.426;2022-07-03T04:23:11;4.65;;;4.05;;
67187;SDS011;54117;53.532;49.426;2022-07-03T04:25:38;5.00;;;4.57;;
67187;SDS011;54117;53.532;49.426;2022-07-03T04:28:04;4.63;;;3.88;;
67187;SDS011;54117;53.532;49.426;2022-07-03T04:30:31;4.18;;;3.80;;
67187;SDS011;54117;53.532;49.426;2022-07-03T04:32:57;4.45;;;4.05;;
67187;SDS011;54117;53.532;49.426;2022-07-03T04:35:24;4.95;;;3.88;;
67187;SDS011;54117;53.532;49.426;2022-07-03T04:37:50;5.63;;;3.70;;
67187;SDS011;54117;53.532;49.426;2022-07-03T04:40:17;8.00;;;4.43;;
67187;SDS011;54117;53.532;49.426;2022-07-03T04:42:44;9.73;;;4.43;;
67187;SDS011;54117;53.532;49.426;2022-07-03T04:45:10;7.65;;;3.75;;
67187;SDS011;54117;53.532;49.426;2022-07-03T04:47:37;5.32;;;3.67;;
67187;SDS011;54117;53.532;49.426;2022-07-03T04:50:04;9.07;;;4.07;;
67187;SDS011;54117;53.532;49.426;2022-07-03T04:52:31;5.60;;;4.50;;
67187;SDS011;54117;53.532;49.426;2022-07-03T04:54:58;6.75;;;4.40;;
67187;SDS011;54117;53.532;49.426;2022-07-03T04:57:24;4.30;;;3.40;;
67187;SDS011;54117;53.532;49.426;2022-07-03T04:59:55;3.53;;;3.22;;
67187;SDS011;54117;53.532;49.426;2022-07-03T05:02:22;3.05;;;2.83;;
67187;SDS011;54117;53.532;49.426;2022-07-03T05:04:49;6.03;;;3.40;;
67187;SDS011;54117;53.532;49.426;2022-07-03T05:07:15;5.38;;;2.95;;
67187;SDS011;54117;53.532;49.426;2022-07-03T05:09:42;10.18;;;4.35;;
67187;SDS011;54117;53.532;49.426;2022-07-03T05:12:08;4.47;;;3.80;;
67187;SDS011;54117;53.532;49.426;2022-07-03T05:14:35;4.85;;;3.45;;
67187;SDS011;54117;53.532;49.426;2022-07-03T05:17:01;3.15;;;2.92;;
67187;SDS011;54117;53.532;49.426;2022-07-03T05:19:28;3.30;;;2.92;;
67187;SDS011;54117;53.532;49.426;2022-07-03T05:21:54;5.72;;;3.08;;
67187;SDS011;54117;53.532;49.426;2022-07-03T05:24:21;2.80;;;2.60;;
67187;SDS011;54117;53.532;49.426;2022-07-03T05:30:49;6.35;;;3.10;;
67187;SDS011;54117;53.532;49.426;2022-07-03T05:33:19;5.22;;;3.25;;
67187;SDS011;54117;53.532;49.426;2022-07-03T05:35:55;4.80;;;2.83;;
67187;SDS011;54117;53.532;49.426;2022-07-03T05:38:22;2.97;;;2.75;;
67187;SDS011;54117;53.532;49.426;2022-07-03T05:41:07;2.90;;;2.63;;
67187;SDS011;54117;53.532;49.426;2022-07-03T05:43:34;7.65;;;3.50;;
67187;SDS011;54117;53.532;49.426;2022-07-03T05:46:01;4.95;;;2.90;;
67187;SDS011;54117;53.532;49.426;2022-07-03T05:48:28;4.25;;;3.20;;
67187;SDS011;54117;53.532;49.426;2022-07-03T05:50:56;3.78;;;2.58;;
67187;SDS011;54117;53.532;49.426;2022-07-03T05:53:23;7.65;;;2.60;;
67187;SDS011;54117;53.532;49.426;2022-07-03T05:55:50;3.38;;;2.92;;
67187;SDS011;54117;53.532;49.426;2022-07-03T05:58:18;2.58;;;2.33;;
67187;SDS011;54117;53.532;49.426;2022-07-03T06:00:54;6.57;;;2.80;;
67187;SDS011;54117;53.532;49.426;2022-07-03T06:03:24;3.25;;;2.97;;
67187;SDS011;54117;53.532;49.426;2022-07-03T06:05:50;2.72;;;2.53;;
67187;SDS011;54117;53.532;49.426;2022-07-03T06:08:17;2.83;;;2.63;;
67187;SDS011;54117;53.532;49.426;2022-07-03T06:10:44;4.30;;;2.72;;
67187;SDS011;54117;53.532;49.426;2022-07-03T06:13:10;3.95;;;2.80;;
67187;SDS011;54117;53.532;49.426;2022-07-03T06:15:37;3.90;;;2.25;;
67187;SDS011;54117;53.532;49.426;2022-07-03T06:18:04;5.70;;;2.95;;
67187;SDS011;54117;53.532;49.426;2022-07-03T06:20:31;5.65;;;2.80;;
67187;SDS011;54117;53.532;49.426;2022-07-03T06:23:02;6.57;;;5.82;;
67187;SDS011;54117;53.532;49.426;2022-07-03T06:25:29;5.45;;;4.63;;
67187;SDS011;54117;53.532;49.426;2022-07-03T06:27:55;6.05;;;4.22;;
67187;SDS011;54117;53.532;49.426;2022-07-03T06:30:22;6.97;;;2.85;;
67187;SDS011;54117;53.532;49.426;2022-07-03T06:32:48;3.58;;;3.00;;
67187;SDS011;54117;53.532;49.426;2022-07-03T06:35:15;5.28;;;2.65;;
67187;SDS011;54117;53.532;49.426;2022-07-03T06:37:42;2.75;;;2.55;;
67187;SDS011;54117;53.532;49.426;2022-07-03T06:40:17;5.43;;;3.25;;
67187;SDS011;54117;53.532;49.426;2022-07-03T06:42:44;2.47;;;2.30;;
67187;SDS011;54117;53.532;49.426;2022-07-03T06:48:15;2.90;;;2.70;;
67187;SDS011;54117;53.532;49.426;2022-07-03T06:50:37;6.20;;;3.42;;
67187;SDS011;54117;53.532;49.426;2022-07-03T06:53:03;4.25;;;2.97;;
67187;SDS011;54117;53.532;49.426;2022-07-03T06:55:30;3.42;;;2.60;;
67187;SDS011;54117;53.532;49.426;2022-07-03T06:57:58;3.05;;;2.58;;
67187;SDS011;54117;53.532;49.426;2022-07-03T07:00:28;4.07;;;2.55;;
67187;SDS011;54117;53.532;49.426;2022-07-03T07:02:55;2.42;;;2.33;;
67187;SDS011;54117;53.532;49.426;2022-07-03T07:05:24;5.93;;;3.30;;
67187;SDS011;54117;53.532;49.426;2022-07-03T07:07:52;7.75;;;2.88;;
67187;SDS011;54117;53.532;49.426;2022-07-03T07:12:50;3.72;;;2.50;;
67187;SDS011;54117;53.532;49.426;2022-07-03T07:15:16;7.22;;;2.90;;
67187;SDS011;54117;53.532;49.426;2022-07-03T07:17:44;2.95;;;2.63;;
67187;SDS011;54117;53.532;49.426;2022-07-03T07:20:10;4.53;;;3.22;;
67187;SDS011;54117;53.532;49.426;2022-07-03T07:22:37;3.40;;;2.25;;
67187;SDS011;54117;53.532;49.426;2022-07-03T07:25:10;3.88;;;2.60;;
67187;SDS011;54117;53.532;49.426;2022-07-03T07:27:37;2.53;;;2.33;;
67187;SDS011;54117;53.532;49.426;2022-07-03T07:30:03;2.95;;;2.75;;
67187;SDS011;54117;53.532;49.426;2022-07-03T07:32:30;2.40;;;2.20;;
67187;SDS011;54117;53.532;49.426;2022-07-03T07:34:57;4.03;;;3.17;;
67187;SDS011;54117;53.532;49.426;2022-07-03T07:37:27;4.10;;;2.53;;
67187;SDS011;54117;53.532;49.426;2022-07-03T07:39:54;5.53;;;2.85;;
67187;SDS011;54117;53.532;49.426;2022-07-03T07:42:20;8.50;;;3.15;;
67187;SDS011;54117;53.532;49.426;2022-07-03T07:44:47;2.40;;;2.20;;
67187;SDS011;54117;53.532;49.426;2022-07-03T07:47:13;3.83;;;2.53;;
67187;SDS011;54117;53.532;49.426;2022-07-03T07:49:40;11.50;;;6.70;;
67187;SDS011;54117;53.532;49.426;2022-07-03T07:52:07;9.95;;;6.00;;
67187;SDS011;54117;53.532;49.426;2022-07-03T07:54:38;10.03;;;5.17;;
67187;SDS011;54117;53.532;49.426;2022-07-03T07:57:04;8.15;;;3.78;;
67187;SDS011;54117;53.532;49.426;2022-07-03T07:59:31;5.57;;;2.53;;
67187;SDS011;54117;53.532;49.426;2022-07-03T08:01:57;5.88;;;3.17;;
67187;SDS011;54117;53.532;49.426;2022-07-03T08:04:42;4.68;;;2.92;;
67187;SDS011;54117;53.532;49.426;2022-07-03T08:07:27;4.85;;;3.08;;
67187;SDS011;54117;53.532;49.426;2022-07-03T08:09:54;3.28;;;2.75;;
67187;SDS011;54117;53.532;49.426;2022-07-03T08:12:20;3.63;;;2.70;;
67187;SDS011;54117;53.532;49.426;2022-07-03T08:14:49;5.22;;;2.72;;
67187;SDS011;54117;53.532;49.426;2022-07-03T08:17:16;2.35;;;2.15;;
67187;SDS011;54117;53.532;49.426;2022-07-03T08:19:43;3.95;;;2.80;;
67187;SDS011;54117;53.532;49.426;2022-07-03T08:22:13;3.75;;;3.45;;
67187;SDS011;54117;53.532;49.426;2022-07-03T08:24:41;4.38;;;2.40;;
67187;SDS011;54117;53.532;49.426;2022-07-03T08:27:12;3.08;;;2.22;;
67187;SDS011;54117;53.532;49.426;2022-07-03T08:32:06;7.18;;;3.70;;
67187;SDS011;54117;53.532;49.426;2022-07-03T08:34:33;22.52;;;9.20;;
67187;SDS011;54117;53.532;49.426;2022-07-03T08:37:02;44.90;;;16.52;;
67187;SDS011;54117;53.532;49.426;2022-07-03T08:39:32;58.08;;;19.50;;
67187;SDS011;54117;53.532;49.426;2022-07-03T08:42:06;46.80;;;17.15;;
67187;SDS011;54117;53.532;49.426;2022-07-03T08:47:12;5.20;;;3.30;;
67187;SDS011;54117;53.532;49.426;2022-07-03T08:49:41;4.60;;;3.05;;
67187;SDS011;54117;53.532;49.426;2022-07-03T08:52:17;10.98;;;4.93;;
67187;SDS011;54117;53.532;49.426;2022-07-03T08:54:44;26.98;;;10.82;;
67187;SDS011;54117;53.532;49.426;2022-07-03T08:57:13;6.90;;;3.35;;
67187;SDS011;54117;53.532;49.426;2022-07-03T08:59:40;2.88;;;2.35;;
67187;SDS011;54117;53.532;49.426;2022-07-03T09:02:09;2.42;;;2.22;;
67187;SDS011;54117;53.532;49.426;2022-07-03T09:04:36;3.67;;;2.50;;
67187;SDS011;54117;53.532;49.426;2022-07-03T09:07:13;4.03;;;2.42;;
67187;SDS011;54117;53.532;49.426;2022-07-03T09:09:49;6.63;;;2.40;;
67187;SDS011;54117;53.532;49.426;2022-07-03T09:12:17;2.40;;;2.20;;
67187;SDS011;54117;53.532;49.426;2022-07-03T09:14:44;6.05;;;2.40;;
67187;SDS011;54117;53.532;49.426;2022-07-03T09:17:10;2.88;;;2.65;;
67187;SDS011;54117;53.532;49.426;2022-07-03T09:19:44;5.05;;;2.35;;
67187;SDS011;54117;53.532;49.426;2022-07-03T09:22:20;4.97;;;2.95;;
67187;SDS011;54117;53.532;49.426;2022-07-03T09:25:02;3.30;;;3.00;;
67187;SDS011;54117;53.532;49.426;2022-07-03T09:27:53;4.75;;;2.92;;
67187;SDS011;54117;53.532;49.426;2022-07-03T09:30:25;2.67;;;2.17;;
67187;SDS011;54117;53.532;49.426;2022-07-03T09:32:52;6.32;;;2.70;;
67187;SDS011;54117;53.532;49.426;2022-07-03T09:35:23;2.88;;;2.65;;
67187;SDS011;54117;53.532;49.426;2022-07-03T09:37:52;2.45;;;2.22;;
67187;SDS011;54117;53.532;49.426;2022-07-03T09:40:25;3.97;;;2.47;;
67187;SDS011;54117;53.532;49.426;2022-07-03T09:43:44;2.53;;;2.33;;
67187;SDS011;54117;53.532;49.426;2022-07-03T09:46:12;5.57;;;3.22;;
67187;SDS011;54117;53.532;49.426;2022-07-03T09:48:46;4.00;;;2.90;;
67187;SDS011;54117;53.532;49.426;2022-07-03T09:56:29;4.15;;;2.85;;
67187;SDS011;54117;53.532;49.426;2022-07-03T09:59:00;3.72;;;3.00;;
67187;SDS011;54117;53.532;49.426;2022-07-03T10:01:39;3.90;;;2.90;;
67187;SDS011;54117;53.532;49.426;2022-07-03T10:04:11;5.00;;;2.58;;
67187;SDS011;54117;53.532;49.426;2022-07-03T10:06:50;6.53;;;3.40;;
67187;SDS011;54117;53.532;49.426;2022-07-03T10:09:27;2.92;;;2.65;;
67187;SDS011;54117;53.532;49.426;2022-07-03T10:11:59;4.45;;;2.90;;
67187;SDS011;54117;53.532;49.426;2022-07-03T10:14:36;12.48;;;4.65;;
67187;SDS011;54117;53.532;49.426;2022-07-03T10:17:03;4.28;;;3.10;;
67187;SDS011;54117;53.532;49.426;2022-07-03T10:19:38;3.88;;;2.90;;
67187;SDS011;54117;53.532;49.426;2022-07-03T10:22:15;2.67;;;2.25;;
67187;SDS011;54117;53.532;49.426;2022-07-03T10:24:47;5.00;;;2.63;;
67187;SDS011;54117;53.532;49.426;2022-07-03T10:27:14;4.80;;;3.10;;
67187;SDS011;54117;53.532;49.426;2022-07-03T10:29:42;6.50;;;3.22;;
67187;SDS011;54117;53.532;49.426;2022-07-03T10:32:10;6.05;;;3.15;;
67187;SDS011;54117;53.532;49.426;2022-07-03T10:34:39;5.82;;;3.70;;
67187;SDS011;54117;53.532;49.426;2022-07-03T10:37:07;8.05;;;4.47;;
67187;SDS011;54117;53.532;49.426;2022-07-03T10:39:40;4.82;;;3.47;;
67187;SDS011;54117;53.532;49.426;2022-07-03T10:42:11;4.85;;;3.13;;
67187;SDS011;54117;53.532;49.426;2022-07-03T10:45:07;5.68;;;3.65;;
67187;SDS011;54117;53.532;49.426;2022-07-03T10:50:09;18.95;;;7.40;;
67187;SDS011;54117;53.532;49.426;2022-07-03T10:52:41;36.22;;;10.73;;
67187;SDS011;54117;53.532;49.426;2022-07-03T10:55:08;26.27;;;9.10;;
67187;SDS011;54117;53.532;49.426;2022-07-03T10:57:37;16.20;;;6.93;;
67187;SDS011;54117;53.532;49.426;2022-07-03T11:00:05;16.95;;;6.90;;
67187;SDS011;54117;53.532;49.426;2022-07-03T11:02:41;9.73;;;5.28;;
67187;SDS011;54117;53.532;49.426;2022-07-03T11:15:44;8.88;;;6.32;;
67187;SDS011;54117;53.532;49.426;2022-07-03T11:25:42;10.32;;;5.20;;
67187;SDS011;54117;53.532;49.426;2022-07-03T11:33:49;7.25;;;2.92;;
67187;SDS011;54117;53.532;49.426;2022-07-03T11:41:24;13.32;;;7.53;;
67187;SDS011;54117;53.532;49.426;2022-07-03T11:43:54;9.45;;;5.30;;
67187;SDS011;54117;53.532;49.426;2022-07-03T11:46:28;10.73;;;5.70;;
67187;SDS011;54117;53.532;49.426;2022-07-03T11:53:35;3.03;;;2.80;;
67187;SDS011;54117;53.532;49.426;2022-07-03T11:56:14;3.25;;;3.03;;
67187;SDS011;54117;53.532;49.426;2022-07-03T11:58:43;5.68;;;3.17;;
67187;SDS011;54117;53.532;49.426;2022-07-03T12:09:59;7.65;;;3.40;;
67187;SDS011;54117;53.532;49.426;2022-07-03T12:12:26;7.57;;;6.78;;
67187;SDS011;54117;53.532;49.426;2022-07-03T12:14:55;8.20;;;4.25;;
67187;SDS011;54117;53.532;49.426;2022-07-03T12:17:23;9.15;;;3.92;;
67187;SDS011;54117;53.532;49.426;2022-07-03T12:19:58;17.10;;;5.28;;
67187;SDS011;54117;53.532;49.426;2022-07-03T12:22:33;10.13;;;4.32;;
67187;SDS011;54117;53.532;49.426;2022-07-03T12:25:05;7.03;;;3.80;;
67187;SDS011;54117;53.532;49.426;2022-07-03T12:30:04;4.07;;;3.50;;
67187;SDS011;54117;53.532;49.426;2022-07-03T12:32:35;5.72;;;3.35;;
67187;SDS011;54117;53.532;49.426;2022-07-03T12:35:03;5.93;;;4.03;;
67187;SDS011;54117;53.532;49.426;2022-07-03T12:37:34;6.72;;;3.25;;
67187;SDS011;54117;53.532;49.426;2022-07-03T12:40:07;4.32;;;2.75;;
67187;SDS011;54117;53.532;49.426;2022-07-03T12:42:48;7.75;;;3.95;;
67187;SDS011;54117;53.532;49.426;2022-07-03T12:45:27;8.32;;;4.65;;
67187;SDS011;54117;53.532;49.426;2022-07-03T12:47:58;6.72;;;3.97;;
67187;SDS011;54117;53.532;49.426;2022-07-03T12:50:47;4.35;;;3.97;;
67187;SDS011;54117;53.532;49.426;2022-07-03T12:53:29;5.72;;;3.25;;
67187;SDS011;54117;53.532;49.426;2022-07-03T12:56:04;4.70;;;3.47;;
67187;SDS011;54117;53.532;49.426;2022-07-03T12:58:34;5.55;;;3.88;;
67187;SDS011;54117;53.532;49.426;2022-07-03T13:01:32;3.97;;;3.42;;
67187;SDS011;54117;53.532;49.426;2022-07-03T13:03:59;3.10;;;2.47;;
67187;SDS011;54117;53.532;49.426;2022-07-03T13:06:26;6.55;;;3.55;;
67187;SDS011;54117;53.532;49.426;2022-07-03T13:08:54;4.75;;;4.28;;
67187;SDS011;54117;53.532;49.426;2022-07-03T13:11:37;12.13;;;6.32;;
67187;SDS011;54117;53.532;49.426;2022-07-03T13:14:07;3.95;;;3.10;;
67187;SDS011;54117;53.532;49.426;2022-07-03T13:19:13;4.03;;;3.53;;
67187;SDS011;54117;53.532;49.426;2022-07-03T13:21:41;6.57;;;3.80;;
67187;SDS011;54117;53.532;49.426;2022-07-03T13:24:09;7.07;;;5.57;;
67187;SDS011;54117;53.532;49.426;2022-07-03T13:26:36;31.98;;;18.67;;
67187;SDS011;54117;53.532;49.426;2022-07-03T13:29:03;23.75;;;15.73;;
67187;SDS011;54117;53.532;49.426;2022-07-03T13:31:30;14.45;;;8.80;;
67187;SDS011;54117;53.532;49.426;2022-07-03T13:33:57;26.08;;;15.50;;
67187;SDS011;54117;53.532;49.426;2022-07-03T13:36:28;31.40;;;17.73;;
67187;SDS011;54117;53.532;49.426;2022-07-03T13:38:56;13.60;;;9.57;;
67187;SDS011;54117;53.532;49.426;2022-07-03T13:41:24;11.18;;;6.82;;
67187;SDS011;54117;53.532;49.426;2022-07-03T13:43:51;6.90;;;4.93;;
67187;SDS011;54117;53.532;49.426;2022-07-03T13:46:18;8.40;;;5.80;;
67187;SDS011;54117;53.532;49.426;2022-07-03T13:48:50;13.38;;;8.48;;
67187;SDS011;54117;53.532;49.426;2022-07-03T13:51:18;9.13;;;7.28;;
67187;SDS011;54117;53.532;49.426;2022-07-03T13:53:45;8.20;;;6.60;;
67187;SDS011;54117;53.532;49.426;2022-07-03T13:56:13;8.23;;;4.88;;
67187;SDS011;54117;53.532;49.426;2022-07-03T13:58:41;7.68;;;6.50;;
67187;SDS011;54117;53.532;49.426;2022-07-03T14:01:07;8.77;;;6.35;;
67187;SDS011;54117;53.532;49.426;2022-07-03T14:03:34;12.07;;;6.60;;
67187;SDS011;54117;53.532;49.426;2022-07-03T14:06:00;7.18;;;6.03;;
67187;SDS011;54117;53.532;49.426;2022-07-03T14:08:27;7.38;;;5.03;;
67187;SDS011;54117;53.532;49.426;2022-07-03T14:10:53;8.85;;;5.43;;
67187;SDS011;54117;53.532;49.426;2022-07-03T14:13:20;5.10;;;4.57;;
67187;SDS011;54117;53.532;49.426;2022-07-03T14:15:46;8.25;;;4.97;;
67187;SDS011;54117;53.532;49.426;2022-07-03T14:18:13;5.47;;;4.57;;
67187;SDS011;54117;53.532;49.426;2022-07-03T14:20:39;7.07;;;4.90;;
67187;SDS011;54117;53.532;49.426;2022-07-03T14:23:06;5.88;;;4.70;;
67187;SDS011;54117;53.532;49.426;2022-07-03T14:25:32;6.18;;;4.80;;
67187;SDS011;54117;53.532;49.426;2022-07-03T14:27:59;6.07;;;4.03;;
67187;SDS011;54117;53.532;49.426;2022-07-03T14:30:44;6.68;;;4.30;;
67187;SDS011;54117;53.532;49.426;2022-07-03T14:33:28;5.13;;;4.30;;
67187;SDS011;54117;53.532;49.426;2022-07-03T14:35:55;10.15;;;5.18;;
67187;SDS011;54117;53.532;49.426;2022-07-03T14:38:21;5.22;;;4.72;;
67187;SDS011;54117;53.532;49.426;2022-07-03T14:40:48;8.70;;;5.75;;
67187;SDS011;54117;53.532;49.426;2022-07-03T14:43:14;7.80;;;6.45;;
67187;SDS011;54117;53.532;49.426;2022-07-03T14:45:41;17.00;;;6.38;;
67187;SDS011;54117;53.532;49.426;2022-07-03T14:48:07;7.03;;;6.32;;
67187;SDS011;54117;53.532;49.426;2022-07-03T14:50:34;10.75;;;6.57;;
67187;SDS011;54117;53.532;49.426;2022-07-03T14:53:01;8.73;;;4.88;;
67187;SDS011;54117;53.532;49.426;2022-07-03T14:55:31;5.18;;;4.57;;
67187;SDS011;54117;53.532;49.426;2022-07-03T14:58:05;6.07;;;4.80;;
67187;SDS011;54117;53.532;49.426;2022-07-03T15:00:45;8.57;;;6.28;;
67187;SDS011;54117;53.532;49.426;2022-07-03T15:03:17;14.10;;;7.38;;
67187;SDS011;54117;53.532;49.426;2022-07-03T15:05:55;13.77;;;9.10;;
67187;SDS011;54117;53.532;49.426;2022-07-03T15:10:55;18.33;;;11.68;;
67187;SDS011;54117;53.532;49.426;2022-07-03T15:13:27;22.23;;;11.63;;
67187;SDS011;54117;53.532;49.426;2022-07-03T15:15:54;10.90;;;6.88;;
67187;SDS011;54117;53.532;49.426;2022-07-03T15:18:22;13.15;;;7.35;;
67187;SDS011;54117;53.532;49.426;2022-07-03T15:20:51;14.57;;;6.63;;
67187;SDS011;54117;53.532;49.426;2022-07-03T15:23:18;6.82;;;5.10;;
67187;SDS011;54117;53.532;49.426;2022-07-03T15:25:45;6.97;;;5.50;;
67187;SDS011;54117;53.532;49.426;2022-07-03T15:28:14;9.48;;;5.90;;
67187;SDS011;54117;53.532;49.426;2022-07-03T15:30:48;12.80;;;7.22;;
67187;SDS011;54117;53.532;49.426;2022-07-03T15:33:17;7.78;;;6.97;;
67187;SDS011;54117;53.532;49.426;2022-07-03T15:35:45;5.32;;;4.75;;
67187;SDS011;54117;53.532;49.426;2022-07-03T15:38:21;10.52;;;5.47;;
67187;SDS011;54117;53.532;49.426;2022-07-03T15:40:58;6.10;;;4.72;;
67187;SDS011;54117;53.532;49.426;2022-07-03T15:43:32;6.68;;;5.03;;
67187;SDS011;54117;53.532;49.426;2022-07-03T15:46:23;8.02;;;5.20;;
67187;SDS011;54117;53.532;49.426;2022-07-03T15:51:41;14.27;;;6.32;;
67187;SDS011;54117;53.532;49.426;2022-07-03T15:54:55;15.68;;;7.32;;
67187;SDS011;54117;53.532;49.426;2022-07-03T15:59:59;20.73;;;11.57;;
67187;SDS011;54117;53.532;49.426;2022-07-03T16:02:36;16.80;;;10.50;;
67187;SDS011;54117;53.532;49.426;2022-07-03T16:05:17;18.08;;;11.85;;
67187;SDS011;54117;53.532;49.426;2022-07-03T16:07:50;26.38;;;15.02;;
67187;SDS011;54117;53.532;49.426;2022-07-03T16:10:18;21.13;;;11.60;;
67187;SDS011;54117;53.532;49.426;2022-07-03T16:12:47;13.68;;;10.45;;
67187;SDS011;54117;53.532;49.426;2022-07-03T16:15:15;13.35;;;10.25;;
67187;SDS011;54117;53.532;49.426;2022-07-03T16:17:42;10.15;;;7.70;;
67187;SDS011;54117;53.532;49.426;2022-07-03T16:20:10;11.27;;;7.05;;
67187;SDS011;54117;53.532;49.426;2022-07-03T16:22:37;10.80;;;6.93;;
67187;SDS011;54117;53.532;49.426;2022-07-03T16:25:04;20.65;;;11.00;;
67187;SDS011;54117;53.532;49.426;2022-07-03T16:27:33;15.15;;;9.07;;
67187;SDS011;54117;53.532;49.426;2022-07-03T16:30:00;13.13;;;9.60;;
67187;SDS011;54117;53.532;49.426;2022-07-03T16:32:28;14.93;;;9.38;;
67187;SDS011;54117;53.532;49.426;2022-07-03T16:35:01;9.57;;;7.68;;
67187;SDS011;54117;53.532;49.426;2022-07-03T16:37:54;13.80;;;6.72;;
67187;SDS011;54117;53.532;49.426;2022-07-03T16:40:23;9.70;;;6.60;;
67187;SDS011;54117;53.532;49.426;2022-07-03T16:42:52;10.93;;;7.13;;
67187;SDS011;54117;53.532;49.426;2022-07-03T16:45:19;13.00;;;7.63;;
67187;SDS011;54117;53.532;49.426;2022-07-03T16:47:47;13.52;;;7.75;;
67187;SDS011;54117;53.532;49.426;2022-07-03T16:50:17;12.63;;;7.82;;
67187;SDS011;54117;53.532;49.426;2022-07-03T16:52:45;18.17;;;8.88;;
67187;SDS011;54117;53.532;49.426;2022-07-03T16:55:17;14.20;;;8.75;;